createdAt,value
2022-10-26T00:01:11.807Z,76357.75
2022-10-26T00:03:43.708Z,76353.72
2022-10-26T00:06:14.882Z,76357.75
2022-10-26T00:08:42.496Z,76363.84
2022-10-26T00:11:10.993Z,76361.81
2022-10-26T00:13:39.530Z,76365.88
2022-10-26T00:16:15.359Z,76365.88
2022-10-26T00:18:43.743Z,76359.78
2022-10-26T00:21:11.289Z,76369.91
2022-10-26T00:23:39.572Z,76363.84
2022-10-26T00:26:07.116Z,76361.81
2022-10-26T00:28:34.601Z,76361.81
2022-10-26T00:31:07.534Z,76363.84
2022-10-26T00:33:35.011Z,76349.66
2022-10-26T00:36:02.205Z,76357.75
2022-10-26T00:38:29.762Z,76345.59
2022-10-26T00:43:25.134Z,76347.63
2022-10-26T00:45:53.837Z,76347.63
2022-10-26T00:48:35.505Z,76349.66
2022-10-26T00:51:09.119Z,76353.72
2022-10-26T00:53:37.618Z,76349.66
2022-10-26T00:56:05.088Z,76349.66
2022-10-26T00:58:32.781Z,76353.72
2022-10-26T01:00:59.795Z,76341.53
2022-10-26T01:03:28.459Z,76341.53
2022-10-26T01:05:58.954Z,76353.72
2022-10-26T01:08:28.676Z,76361.81
2022-10-26T01:10:57.818Z,76361.81
2022-10-26T01:13:28.404Z,76357.75
2022-10-26T01:15:55.454Z,76357.75
2022-10-26T01:18:41.636Z,76353.72
2022-10-26T01:21:20.943Z,76361.81
2022-10-26T01:23:57.005Z,76369.91
2022-10-26T01:26:49.867Z,76367.88
2022-10-26T01:30:02.253Z,76369.91
2022-10-26T01:33:03.159Z,76369.91
2022-10-26T01:35:34.512Z,76369.91
2022-10-26T01:38:11.013Z,76365.88
2022-10-26T01:40:45.615Z,76361.81
2022-10-26T01:43:14.773Z,76373.97
2022-10-26T01:45:46.487Z,76373.97
2022-10-26T01:48:15.083Z,76371.94
2022-10-26T01:50:45.482Z,76378.03
2022-10-26T01:53:15.362Z,76369.91
2022-10-26T01:55:49.062Z,76369.91
2022-10-26T01:58:25.094Z,76373.97
2022-10-26T02:01:38.597Z,76386.13
2022-10-26T02:04:30.233Z,76382.09
2022-10-26T02:07:07.615Z,76386.13
2022-10-26T02:09:55.936Z,76386.13
2022-10-26T02:12:57.602Z,76384.09
2022-10-26T02:15:54.743Z,76392.22
2022-10-26T02:18:27.668Z,76398.28
2022-10-26T02:21:01.318Z,76394.25
2022-10-26T02:23:32.738Z,76394.25
2022-10-26T02:26:01.299Z,76402.34
2022-10-26T02:28:34.310Z,76410.47
2022-10-26T02:31:03.867Z,76408.44
2022-10-26T02:33:35.262Z,76418.56
2022-10-26T02:36:05.614Z,76422.63
2022-10-26T02:38:34.569Z,76422.63
2022-10-26T02:41:03.873Z,76422.63
2022-10-26T02:43:39.145Z,76426.69
2022-10-26T02:46:15.363Z,76428.69
2022-10-26T02:48:42.952Z,76438.84
2022-10-26T02:51:15.719Z,76434.78
2022-10-26T02:54:15.252Z,76438.84
2022-10-26T02:56:55.646Z,76430.72
2022-10-26T02:59:28.005Z,76436.81
2022-10-26T03:01:55.891Z,76442.91
2022-10-26T03:04:30.027Z,76446.94
2022-10-26T03:06:57.222Z,76442.91
2022-10-26T03:09:25.561Z,76451.00
2022-10-26T03:11:53.593Z,76453.03
2022-10-26T03:14:20.811Z,76463.16
2022-10-26T03:16:47.764Z,76455.06
2022-10-26T03:19:15.103Z,76459.09
2022-10-26T03:21:42.485Z,76463.16
2022-10-26T03:24:10.180Z,76467.22
2022-10-26T03:26:37.323Z,76475.31
2022-10-26T03:29:04.627Z,76471.28
2022-10-26T03:31:31.444Z,76471.28
2022-10-26T03:33:58.742Z,76473.28
2022-10-26T03:36:25.947Z,76471.28
2022-10-26T03:38:53.053Z,76473.28
2022-10-26T03:41:20.077Z,76473.28
2022-10-26T03:43:48.530Z,76479.38
2022-10-26T03:46:15.597Z,76483.44
2022-10-26T03:48:42.680Z,76485.47
2022-10-26T03:51:09.641Z,76495.59
2022-10-26T03:53:36.773Z,76499.66
2022-10-26T03:56:03.730Z,76499.66
2022-10-26T03:58:30.869Z,76505.72
2022-10-26T04:00:57.744Z,76503.69
2022-10-26T04:03:24.925Z,76503.69
2022-10-26T04:05:52.288Z,76503.69
2022-10-26T04:08:19.708Z,76501.69
2022-10-26T04:10:47.572Z,76491.53
2022-10-26T04:13:14.929Z,76489.50
2022-10-26T04:15:41.935Z,76491.53
2022-10-26T04:18:09.543Z,76497.63
2022-10-26T04:20:36.880Z,76503.69
2022-10-26T04:23:06.777Z,76507.75
2022-10-26T04:25:34.341Z,76511.81
2022-10-26T04:28:03.924Z,76515.88
2022-10-26T04:30:32.363Z,76511.81
2022-10-26T04:32:59.674Z,76515.88
2022-10-26T04:35:27.591Z,76515.88
2022-10-26T04:38:06.914Z,76513.84
2022-10-26T04:40:35.359Z,76519.91
2022-10-26T04:43:02.715Z,76519.91
2022-10-26T04:45:31.172Z,76540.19
2022-10-26T04:48:05.137Z,76548.31
2022-10-26T04:50:32.277Z,76550.31
2022-10-26T04:52:59.594Z,76556.41
2022-10-26T04:55:26.829Z,76556.41
2022-10-26T04:57:56.041Z,76560.47
2022-10-26T05:00:25.783Z,76564.50
2022-10-26T05:02:59.364Z,76564.50
2022-10-26T05:05:27.043Z,76568.56
2022-10-26T05:07:56.264Z,76564.50
2022-10-26T05:10:24.945Z,76576.69
2022-10-26T05:12:57.088Z,76574.66
2022-10-26T05:15:24.296Z,76572.63
2022-10-26T05:18:00.021Z,76592.91
2022-10-26T05:20:31.036Z,76588.84
2022-10-26T05:23:01.242Z,76582.75
2022-10-26T05:25:30.059Z,76588.84
2022-10-26T05:28:01.404Z,76580.72
2022-10-26T05:30:29.883Z,76588.84
2022-10-26T05:32:59.926Z,76601.00
2022-10-26T05:35:28.511Z,76601.00
2022-10-26T05:37:56.310Z,76601.00
2022-10-26T05:40:24.524Z,76607.09
2022-10-26T05:42:53.153Z,76613.16
2022-10-26T05:45:20.308Z,76613.16
2022-10-26T05:47:47.981Z,76617.22
2022-10-26T05:50:15.290Z,76613.16
2022-10-26T05:52:45.072Z,76617.22
2022-10-26T05:55:15.395Z,76621.28
2022-10-26T05:57:43.926Z,76609.09
2022-10-26T06:00:23.276Z,76609.09
2022-10-26T06:03:08.698Z,76613.16
2022-10-26T06:05:45.254Z,76607.09
2022-10-26T06:08:12.973Z,76607.09
2022-10-26T06:10:41.728Z,76603.03
2022-10-26T06:13:09.543Z,76605.06
2022-10-26T06:16:09.986Z,76607.09
2022-10-26T06:18:46.252Z,76609.09
2022-10-26T06:21:26.876Z,76603.03
2022-10-26T06:24:08.888Z,76596.94
2022-10-26T06:26:45.466Z,76596.94
2022-10-26T06:29:31.629Z,76588.84
2022-10-26T06:31:59.241Z,76584.78
2022-10-26T06:34:33.109Z,76580.72
2022-10-26T06:37:01.848Z,76584.78
2022-10-26T06:39:36.099Z,76584.78
2022-10-26T06:42:03.629Z,76592.91
2022-10-26T06:44:31.731Z,76596.94
2022-10-26T06:47:19.729Z,76594.91
2022-10-26T06:49:59.474Z,76588.84
2022-10-26T06:52:44.996Z,76582.75
2022-10-26T06:55:17.319Z,76584.78
2022-10-26T06:57:45.133Z,76576.69
2022-10-26T07:00:25.462Z,76572.63
2022-10-26T07:02:52.974Z,76564.50
2022-10-26T07:05:21.241Z,76564.50
2022-10-26T07:07:48.945Z,76576.69
2022-10-26T07:10:16.718Z,76572.63
2022-10-26T07:12:44.666Z,76580.72
2022-10-26T07:15:12.300Z,76588.84
2022-10-26T07:17:48.190Z,76574.66
2022-10-26T07:20:18.176Z,76572.63
2022-10-26T07:22:45.219Z,76564.50
2022-10-26T07:25:12.771Z,76574.66
2022-10-26T07:27:39.844Z,76562.50
2022-10-26T07:30:08.565Z,76566.53
2022-10-26T07:32:36.638Z,76564.50
2022-10-26T07:35:05.005Z,76564.50
2022-10-26T07:37:32.289Z,76558.44
2022-10-26T07:40:04.030Z,76560.47
2022-10-26T07:42:34.692Z,76554.38
2022-10-26T07:45:02.351Z,76560.47
2022-10-26T07:47:29.323Z,76554.38
2022-10-26T07:49:56.755Z,76552.34
2022-10-26T07:52:24.249Z,76548.31
2022-10-26T07:54:51.475Z,76552.34
2022-10-26T07:57:18.709Z,76560.47
2022-10-26T07:59:46.000Z,76564.50
2022-10-26T08:02:13.931Z,76562.50
2022-10-26T08:04:41.533Z,76552.34
2022-10-26T08:07:08.461Z,76550.31
2022-10-26T08:09:35.925Z,76572.63
2022-10-26T08:12:02.853Z,76576.69
2022-10-26T08:14:30.042Z,76576.69
2022-10-26T08:16:57.241Z,76576.69
2022-10-26T08:19:24.650Z,76584.78
2022-10-26T08:21:51.602Z,76601.00
2022-10-26T08:24:19.369Z,76601.00
2022-10-26T08:26:47.546Z,76613.16
2022-10-26T08:29:14.752Z,76611.13
2022-10-26T08:31:41.993Z,76596.94
2022-10-26T08:34:09.233Z,76588.84
2022-10-26T08:36:36.692Z,76601.00
2022-10-26T08:39:04.863Z,76605.06
2022-10-26T08:41:41.156Z,76609.09
2022-10-26T08:44:14.294Z,76617.22
2022-10-26T08:46:47.081Z,76613.16
2022-10-26T08:49:24.352Z,76625.31
2022-10-26T08:51:56.265Z,76637.50
2022-10-26T08:54:29.177Z,76637.50
2022-10-26T08:57:00.818Z,76637.50
2022-10-26T08:59:38.954Z,76643.56
2022-10-26T09:02:13.239Z,76633.44
2022-10-26T09:04:40.981Z,76633.44
2022-10-26T09:07:20.489Z,76645.59
2022-10-26T09:10:00.675Z,76637.50
2022-10-26T09:12:44.047Z,76629.38
2022-10-26T09:15:31.787Z,76611.13
2022-10-26T09:18:02.106Z,76609.09
2022-10-26T09:20:44.041Z,76605.06
2022-10-26T09:23:43.711Z,76605.06
2022-10-26T09:26:22.064Z,76596.94
2022-10-26T09:28:49.843Z,76590.88
2022-10-26T09:31:18.118Z,76601.00
2022-10-26T09:33:45.091Z,76592.91
2022-10-26T09:36:21.590Z,76605.06
2022-10-26T09:38:51.271Z,76596.94
2022-10-26T09:41:31.659Z,76596.94
2022-10-26T09:44:18.553Z,76596.94
2022-10-26T09:46:57.822Z,76576.69
2022-10-26T09:49:33.795Z,76588.84
2022-10-26T09:52:01.731Z,76584.78
2022-10-26T09:54:29.827Z,76584.78
2022-10-26T09:57:00.276Z,76588.84
2022-10-26T09:59:27.939Z,76580.72
2022-10-26T10:01:55.933Z,76572.63
2022-10-26T10:04:24.362Z,76562.50
2022-10-26T10:07:13.070Z,76560.47
2022-10-26T10:09:40.279Z,76532.09
2022-10-26T10:12:20.561Z,76519.91
2022-10-26T10:14:59.128Z,76495.59
2022-10-26T10:17:26.775Z,76495.59
2022-10-26T10:19:53.958Z,76491.53
2022-10-26T10:22:25.814Z,76495.59
2022-10-26T10:24:55.849Z,76495.59
2022-10-26T10:27:24.121Z,76487.50
2022-10-26T10:29:53.307Z,76491.53
2022-10-26T10:32:34.074Z,76491.53
2022-10-26T10:35:23.316Z,76505.72
2022-10-26T10:37:51.771Z,76507.75
2022-10-26T10:40:22.224Z,76523.97
2022-10-26T10:42:51.657Z,76521.94
2022-10-26T10:45:23.457Z,76515.88
2022-10-26T10:48:02.680Z,76515.88
2022-10-26T10:50:31.123Z,76511.81
2022-10-26T10:53:26.658Z,76491.53
2022-10-26T10:56:12.486Z,76491.53
2022-10-26T10:59:18.152Z,76483.44
2022-10-26T11:02:16.520Z,76479.38
2022-10-26T11:04:53.017Z,76481.41
2022-10-26T11:07:21.763Z,76487.50
2022-10-26T11:15:14.377Z,76495.59
2022-10-26T11:17:53.393Z,76495.59
2022-10-26T11:20:24.601Z,76495.59
2022-10-26T11:23:00.719Z,76487.50
2022-10-26T11:25:50.289Z,76487.50
2022-10-26T11:28:49.481Z,76485.47
2022-10-26T11:31:29.401Z,76499.66
2022-10-26T11:34:18.182Z,76507.75
2022-10-26T11:36:50.642Z,76509.78
2022-10-26T11:39:21.018Z,76523.97
2022-10-26T11:42:03.284Z,76528.03
2022-10-26T11:44:38.071Z,76511.81
2022-10-26T11:47:18.679Z,76507.75
2022-10-26T11:50:06.665Z,76509.78
2022-10-26T11:53:12.972Z,76511.81
2022-10-26T11:55:41.095Z,76515.88
2022-10-26T11:58:11.854Z,76515.88
2022-10-26T12:00:51.900Z,76507.75
2022-10-26T12:03:25.149Z,76491.53
2022-10-26T12:05:52.445Z,76477.34
2022-10-26T12:08:31.111Z,76459.09
2022-10-26T12:11:42.989Z,76471.28
2022-10-26T12:14:22.809Z,76467.22
2022-10-26T12:16:59.412Z,76459.09
2022-10-26T12:19:45.965Z,76459.09
2022-10-26T12:22:16.412Z,76459.09
2022-10-26T12:24:46.190Z,76438.84
2022-10-26T12:27:49.964Z,76442.91
2022-10-26T12:30:25.167Z,76430.72
2022-10-26T12:33:22.640Z,76418.56
2022-10-26T12:35:50.183Z,76400.31
2022-10-26T12:38:31.663Z,76398.28
2022-10-26T12:41:12.033Z,76414.50
2022-10-26T12:43:40.820Z,76420.59
2022-10-26T12:46:13.756Z,76436.81
2022-10-26T12:48:51.742Z,76463.16
2022-10-26T12:51:18.907Z,76475.31
2022-10-26T12:53:58.063Z,76459.09
2022-10-26T12:56:33.320Z,76465.19
2022-10-26T12:59:33.449Z,76471.28
2022-10-26T13:02:22.318Z,76471.28
2022-10-26T13:05:27.353Z,76467.22
2022-10-26T13:08:02.633Z,76471.28
2022-10-26T13:10:29.843Z,76455.06
2022-10-26T13:13:02.992Z,76451.00
2022-10-26T13:15:38.810Z,76459.09
2022-10-26T13:18:06.144Z,76461.13
2022-10-26T13:20:36.317Z,76461.13
2022-10-26T13:23:16.115Z,76479.38
2022-10-26T13:26:01.022Z,76487.50
2022-10-26T13:28:39.121Z,76475.31
2022-10-26T13:31:18.683Z,76467.22
2022-10-26T13:33:47.466Z,76455.06
2022-10-26T13:36:36.515Z,76459.09
2022-10-26T13:39:15.068Z,76459.09
2022-10-26T13:41:45.528Z,76463.16
2022-10-26T13:44:23.726Z,76463.16
2022-10-26T13:46:59.424Z,76477.34
2022-10-26T13:50:07.407Z,76475.31
2022-10-26T13:52:43.157Z,76495.59
2022-10-26T13:55:34.043Z,76503.69
2022-10-26T13:58:22.426Z,76511.81
2022-10-26T14:01:11.697Z,76507.75
2022-10-26T14:03:39.398Z,76519.91
2022-10-26T14:06:20.137Z,76523.97
2022-10-26T14:08:49.553Z,76523.97
2022-10-26T14:11:23.282Z,76519.91
2022-10-26T14:13:51.039Z,76515.88
2022-10-26T14:16:20.499Z,76511.81
2022-10-26T14:18:49.383Z,76519.91
2022-10-26T14:21:20.518Z,76503.69
2022-10-26T14:23:58.811Z,76515.88
2022-10-26T14:26:28.348Z,76538.16
2022-10-26T14:29:01.641Z,76552.34
2022-10-26T14:31:32.415Z,76570.59
2022-10-26T14:34:01.882Z,76584.78
2022-10-26T14:36:34.156Z,76588.84
2022-10-26T14:39:06.539Z,76601.00
2022-10-26T14:41:36.582Z,76592.91
2022-10-26T14:44:04.526Z,76592.91
2022-10-26T14:46:35.664Z,76588.84
2022-10-26T14:49:03.701Z,76596.94
2022-10-26T14:51:35.830Z,76596.94
2022-10-26T14:54:04.463Z,76596.94
2022-10-26T14:56:40.974Z,76607.09
2022-10-26T14:59:31.828Z,76609.09
2022-10-26T15:02:11.546Z,76625.31
2022-10-26T15:04:56.358Z,76629.38
2022-10-26T15:07:23.828Z,76637.50
2022-10-26T15:09:53.594Z,76645.59
2022-10-26T15:12:38.481Z,76657.75
2022-10-26T15:15:14.540Z,76673.97
2022-10-26T15:17:49.570Z,76690.19
2022-10-26T15:20:23.265Z,76696.28
2022-10-26T15:23:00.607Z,76702.34
2022-10-26T15:25:33.996Z,76714.53
2022-10-26T15:28:21.931Z,76722.63
2022-10-26T15:31:22.733Z,76734.78
2022-10-26T15:33:52.971Z,76738.84
2022-10-26T15:36:27.600Z,76751.00
2022-10-26T15:38:55.789Z,76763.16
2022-10-26T15:41:32.189Z,76771.28
2022-10-26T15:44:05.965Z,76787.50
2022-10-26T15:46:36.657Z,76795.59
2022-10-26T15:49:05.911Z,76811.81
2022-10-26T15:51:33.363Z,76819.94
2022-10-26T15:54:04.111Z,76824.00
2022-10-26T15:56:32.132Z,76830.06
2022-10-26T15:59:00.157Z,76838.19
2022-10-26T16:01:29.631Z,76844.25
2022-10-26T16:03:56.836Z,76852.38
2022-10-26T16:06:28.764Z,76858.44
2022-10-26T16:08:58.869Z,76868.59
2022-10-26T16:11:26.528Z,76876.69
2022-10-26T16:13:55.198Z,76876.69
2022-10-26T16:16:24.287Z,76880.75
2022-10-26T16:19:11.873Z,76880.75
2022-10-26T16:21:43.803Z,76888.88
2022-10-26T16:24:11.257Z,76901.03
2022-10-26T16:26:38.368Z,76913.19
2022-10-26T16:29:05.902Z,76925.34
2022-10-26T16:31:32.904Z,76937.53
2022-10-26T16:34:03.244Z,76949.69
2022-10-26T16:36:34.591Z,76961.84
2022-10-26T16:41:31.277Z,76961.84
2022-10-26T16:43:58.918Z,76957.78
2022-10-26T16:46:26.289Z,76961.84
2022-10-26T16:48:53.505Z,76961.84
2022-10-26T16:51:26.561Z,76957.78
2022-10-26T16:53:55.873Z,76961.84
2022-10-26T16:56:27.183Z,76965.91
2022-10-26T16:58:55.271Z,76969.94
2022-10-26T17:01:23.303Z,76978.06
2022-10-26T17:03:51.602Z,76996.31
2022-10-26T17:06:19.832Z,76998.34
2022-10-26T17:08:47.484Z,77006.44
2022-10-26T17:11:19.641Z,77008.47
2022-10-26T17:13:47.996Z,77010.50
2022-10-26T17:16:21.551Z,77012.53
2022-10-26T17:18:49.639Z,77010.50
2022-10-26T17:21:18.879Z,77012.53
2022-10-26T17:23:46.373Z,77014.56
2022-10-26T17:26:15.226Z,77018.63
2022-10-26T17:28:42.370Z,77026.72
2022-10-26T17:31:13.041Z,77034.84
2022-10-26T17:33:42.903Z,77034.84
2022-10-26T17:36:14.231Z,77047.00
2022-10-26T17:38:43.157Z,77049.03
2022-10-26T17:41:12.990Z,77065.25
2022-10-26T17:43:41.579Z,77071.31
2022-10-26T17:46:24.293Z,77083.50
2022-10-26T17:48:57.400Z,77091.59
2022-10-26T17:51:25.948Z,77083.50
2022-10-26T17:53:53.644Z,77091.59
2022-10-26T17:56:24.758Z,77087.53
2022-10-26T17:59:01.568Z,77091.59
2022-10-26T18:01:29.685Z,77087.53
2022-10-26T18:03:57.323Z,77089.56
2022-10-26T18:06:24.762Z,77091.59
2022-10-26T18:08:52.043Z,77101.72
2022-10-26T18:11:26.196Z,77109.84
2022-10-26T18:13:58.079Z,77111.88
2022-10-26T18:16:27.132Z,77124.03
2022-10-26T18:19:00.647Z,77132.16
2022-10-26T18:21:29.922Z,77130.13
2022-10-26T18:23:57.111Z,77136.19
2022-10-26T18:26:31.322Z,77176.75
2022-10-26T18:29:00.056Z,77154.44
2022-10-26T18:31:28.569Z,77160.53
2022-10-26T18:33:57.496Z,77168.63
2022-10-26T18:36:25.329Z,77164.59
2022-10-26T18:38:53.530Z,77168.63
2022-10-26T18:41:21.913Z,77172.69
2022-10-26T18:43:51.686Z,77170.66
2022-10-26T18:46:23.636Z,77178.78
2022-10-26T18:48:58.179Z,77188.91
2022-10-26T18:51:30.615Z,77192.97
2022-10-26T18:53:58.814Z,77197.03
2022-10-26T18:56:27.296Z,77209.19
2022-10-26T18:58:59.542Z,77211.22
2022-10-26T19:01:32.486Z,77205.13
2022-10-26T19:04:02.019Z,77203.09
2022-10-26T19:06:32.401Z,77205.13
2022-10-26T19:08:59.910Z,77205.13
2022-10-26T19:11:28.838Z,77213.25
2022-10-26T19:13:56.197Z,77217.28
2022-10-26T19:16:45.353Z,77219.31
2022-10-26T19:19:16.381Z,77217.28
2022-10-26T19:21:45.009Z,77221.34
2022-10-26T19:24:16.695Z,77223.38
2022-10-26T19:26:44.436Z,77223.38
2022-10-26T19:29:15.189Z,77225.41
2022-10-26T19:31:47.440Z,77225.41
2022-10-26T19:34:15.884Z,77221.34
2022-10-26T19:36:45.156Z,77245.69
2022-10-26T19:39:17.630Z,77221.34
2022-10-26T19:41:46.879Z,77217.28
2022-10-26T19:44:15.327Z,77225.41
2022-10-26T19:46:43.697Z,77229.47
2022-10-26T19:49:12.596Z,77233.53
2022-10-26T19:51:40.161Z,77225.41
2022-10-26T19:54:07.679Z,77215.28
2022-10-26T19:56:36.571Z,77209.19
2022-10-26T19:59:04.382Z,77205.13
2022-10-26T20:01:31.373Z,77205.13
2022-10-26T20:03:58.613Z,77197.03
2022-10-26T20:06:25.528Z,77197.03
2022-10-26T20:08:52.571Z,77192.97
2022-10-26T20:11:20.313Z,77188.91
2022-10-26T20:13:48.464Z,77188.91
2022-10-26T20:16:17.433Z,77184.84
2022-10-26T20:18:47.860Z,77184.84
2022-10-26T20:21:17.157Z,77168.63
2022-10-26T20:23:45.017Z,77160.53
2022-10-26T20:26:19.575Z,77158.50
2022-10-26T20:28:51.107Z,77156.47
2022-10-26T20:31:18.563Z,77148.38
2022-10-26T20:33:49.509Z,77152.41
2022-10-26T20:36:16.591Z,77146.34
2022-10-26T20:38:44.054Z,77148.38
2022-10-26T20:41:14.473Z,77152.41
2022-10-26T20:43:42.752Z,77148.38
2022-10-26T20:46:23.635Z,77156.47
2022-10-26T20:48:52.450Z,77162.56
2022-10-26T20:51:26.549Z,77172.69
2022-10-26T20:54:10.494Z,77176.75
2022-10-26T20:56:41.718Z,77182.84
2022-10-26T20:59:25.069Z,77182.84
2022-10-26T21:01:52.187Z,77192.97
2022-10-26T21:04:19.480Z,77197.03
2022-10-26T21:06:46.578Z,77209.19
2022-10-26T21:09:13.612Z,77223.38
2022-10-26T21:11:40.763Z,77225.41
2022-10-26T21:14:08.092Z,77229.47
2022-10-26T21:16:35.000Z,77237.56
2022-10-26T21:19:04.933Z,77233.53
2022-10-26T21:21:31.857Z,77241.63
2022-10-26T21:23:59.003Z,77241.63
2022-10-26T21:26:25.899Z,77239.59
2022-10-26T21:28:53.067Z,77241.63
2022-10-26T21:31:21.266Z,77247.72
2022-10-26T21:33:48.789Z,77257.84
2022-10-26T21:36:16.837Z,77270.00
2022-10-26T21:38:45.532Z,77278.13
2022-10-26T21:41:15.216Z,77292.31
2022-10-26T21:43:48.647Z,77306.50
2022-10-26T21:46:18.761Z,77334.91
2022-10-26T21:48:46.675Z,77330.84
2022-10-26T21:51:16.673Z,77326.78
2022-10-26T21:53:44.342Z,77330.84
2022-10-26T21:56:18.738Z,77322.72
2022-10-26T21:58:46.318Z,77320.69
2022-10-26T22:01:18.566Z,77322.72
2022-10-26T22:03:46.494Z,77318.66
2022-10-26T22:06:17.010Z,77318.66
2022-10-26T22:08:45.167Z,77322.72
2022-10-26T22:11:18.135Z,77318.66
2022-10-26T22:13:46.757Z,77318.66
2022-10-26T22:16:25.493Z,77322.72
2022-10-26T22:18:54.825Z,77334.91
2022-10-26T22:21:25.744Z,77336.91
2022-10-26T22:23:53.745Z,77343.00
2022-10-26T22:26:23.447Z,77345.03
2022-10-26T22:28:53.515Z,77343.00
2022-10-26T22:31:26.827Z,77347.06
2022-10-26T22:34:07.601Z,77357.19
2022-10-26T22:36:36.036Z,77363.28
2022-10-26T22:39:04.027Z,77355.16
2022-10-26T22:41:31.150Z,77365.31
2022-10-26T22:44:16.891Z,77367.34
2022-10-26T22:46:45.261Z,77359.22
2022-10-26T22:49:13.238Z,77363.28
2022-10-26T22:51:40.901Z,77359.22
2022-10-26T22:54:07.840Z,77355.16
2022-10-26T22:56:36.369Z,77355.16
2022-10-26T22:59:05.097Z,77359.22
2022-10-26T23:01:36.709Z,77359.22
2022-10-26T23:04:04.041Z,77353.13
2022-10-26T23:06:32.720Z,77355.16
2022-10-26T23:08:59.855Z,77351.13
2022-10-26T23:11:29.213Z,77355.16
2022-10-26T23:13:58.992Z,77359.22
2022-10-26T23:16:27.581Z,77359.22
2022-10-26T23:18:55.525Z,77353.13
2022-10-26T23:23:57.209Z,77367.34
2022-10-26T23:26:24.843Z,77369.38
2022-10-26T23:28:52.031Z,77367.34
2022-10-26T23:31:22.495Z,77375.44
2022-10-26T23:33:51.394Z,77383.56
2022-10-26T23:36:19.067Z,77395.72
2022-10-26T23:38:46.982Z,77399.78
2022-10-26T23:41:15.091Z,77403.84
2022-10-26T23:43:42.450Z,77411.94
2022-10-26T23:46:09.743Z,77428.16
2022-10-26T23:48:37.380Z,77432.22
2022-10-26T23:51:05.086Z,77440.31
2022-10-26T23:53:32.091Z,77444.38
2022-10-26T23:56:17.394Z,77440.31
2022-10-26T23:58:44.525Z,77436.28
